Time;durP1;ratioP1;P1;durP2;ratioP2;P2;SDS_P1;SDS_P2;PMS_P1;PMS_P2;Temp;Humidity;BMP_temperature;BMP_pressure;BME280_temperature;BME280_humidity;BME280_pressure;Samples;Min_cycle;Max_cycle;Signal;HPM_P1;HPM_P2
2021/01/08 00:00:15;;;;;;;31.93;13.67;;;;;;;0.70;100.00;95890.22;5000338;28;20674;-69
2021/01/08 00:02:41;;;;;;;36.53;15.10;;;;;;;0.75;100.00;95892.41;4999431;28;20647;-70
2021/01/08 00:05:09;;;;;;;38.27;16.37;;;;;;;0.73;100.00;95889.16;4999342;28;20230;-69
2021/01/08 00:07:36;;;;;;;55.00;19.37;;;;;;;0.63;100.00;95883.06;4999878;28;20229;-69
2021/01/08 00:10:04;;;;;;;52.30;18.67;;;;;;;0.58;100.00;95892.19;4999875;28;20207;-69
2021/01/08 00:12:31;;;;;;;47.07;18.70;;;;;;;0.67;100.00;95889.63;4998916;28;20229;-69
2021/01/08 00:14:57;;;;;;;42.87;17.27;;;;;;;0.69;100.00;95888.56;4999952;28;20230;-70
2021/01/08 00:17:25;;;;;;;37.17;16.60;;;;;;;0.74;100.00;95885.63;4998917;28;20271;-70
2021/01/08 00:19:51;;;;;;;37.57;15.80;;;;;;;0.78;100.00;95892.19;4999683;28;20210;-70
2021/01/08 00:22:17;;;;;;;38.87;16.93;;;;;;;0.64;100.00;95885.53;4999493;28;20600;-69
2021/01/08 00:24:43;;;;;;;39.07;15.93;;;;;;;0.56;100.00;95881.94;4999291;28;20223;-70
2021/01/08 00:27:09;;;;;;;43.97;17.10;;;;;;;0.61;100.00;95885.78;4998609;28;20197;-70
2021/01/08 00:29:35;;;;;;;38.77;16.40;;;;;;;0.60;100.00;95881.56;4999289;28;20205;-70
2021/01/08 00:32:01;;;;;;;39.47;16.23;;;;;;;0.66;100.00;95893.19;4999104;28;20232;-69
2021/01/08 00:34:27;;;;;;;38.73;16.30;;;;;;;0.70;100.00;95879.00;4999320;28;20226;-69
2021/01/08 00:36:54;;;;;;;40.17;17.27;;;;;;;0.59;100.00;95882.50;4997301;28;20733;-69
2021/01/08 00:39:21;;;;;;;40.40;16.57;;;;;;;0.66;100.00;95888.00;4999588;28;20205;-69
2021/01/08 00:41:49;;;;;;;41.43;17.57;;;;;;;0.61;100.00;95877.16;4998934;28;20229;-70
2021/01/08 00:44:16;;;;;;;40.53;16.43;;;;;;;0.54;100.00;95889.00;4998734;28;20229;-69
2021/01/08 00:46:44;;;;;;;37.30;16.07;;;;;;;0.59;100.00;95887.66;4998893;28;20549;-69
2021/01/08 00:49:11;;;;;;;37.90;15.47;;;;;;;0.59;100.00;95887.66;4999382;28;20201;-69
2021/01/08 00:51:37;;;;;;;40.50;16.27;;;;;;;0.56;100.00;95887.13;4998272;28;20205;-70
2021/01/08 00:54:05;;;;;;;35.37;15.17;;;;;;;0.48;100.00;95888.69;4998963;28;20219;-69
2021/01/08 00:56:31;;;;;;;41.03;16.83;;;;;;;0.60;100.00;95888.50;4999351;28;20194;-70
2021/01/08 00:58:58;;;;;;;36.80;15.70;;;;;;;0.62;100.00;95887.44;4998280;28;20207;-70
2021/01/08 01:01:24;;;;;;;40.43;16.13;;;;;;;0.63;100.00;95885.66;4998670;28;20252;-70
2021/01/08 01:03:50;;;;;;;37.03;15.10;;;;;;;0.60;100.00;95888.50;4999691;28;20605;-70
2021/01/08 01:06:23;;;;;;;41.93;17.03;;;;;;;0.65;100.00;95891.56;4998041;28;20209;-69
2021/01/08 01:08:50;;;;;;;41.70;16.17;;;;;;;0.66;100.00;95891.41;4999209;28;20232;-69
2021/01/08 01:11:16;;;;;;;41.57;16.43;;;;;;;0.57;100.00;95896.53;4998343;28;21365;-69
2021/01/08 01:13:42;;;;;;;38.23;16.80;;;;;;;0.60;100.00;95891.09;4998627;28;20236;-69
2021/01/08 01:16:09;;;;;;;40.27;16.47;;;;;;;0.39;100.00;95897.22;4998280;28;20217;-69
2021/01/08 01:18:35;;;;;;;37.57;16.70;;;;;;;0.57;100.00;95906.06;4998401;28;20210;-70
2021/01/08 01:21:01;;;;;;;35.97;15.70;;;;;;;0.61;100.00;95906.53;4998495;28;20214;-69
2021/01/08 01:23:27;;;;;;;37.93;16.20;;;;;;;0.60;100.00;95904.88;4998432;28;20359;-69
2021/01/08 01:25:53;;;;;;;36.10;15.43;;;;;;;0.64;100.00;95908.03;4997565;28;20200;-69
2021/01/08 01:28:19;;;;;;;36.67;14.97;;;;;;;0.49;100.00;95911.88;4998099;28;20205;-69
2021/01/08 01:30:45;;;;;;;34.77;14.97;;;;;;;0.60;100.00;95912.66;4998340;28;20243;-70
2021/01/08 01:33:12;;;;;;;38.77;15.53;;;;;;;0.59;100.00;95910.19;4998618;28;20657;-69
2021/01/08 01:35:37;;;;;;;34.40;14.70;;;;;;;0.67;100.00;95911.19;4997194;28;20228;-69
2021/01/08 01:38:03;;;;;;;37.30;14.27;;;;;;;0.64;100.00;95913.22;4998407;28;20209;-69
2021/01/08 01:40:30;;;;;;;39.30;14.83;;;;;;;0.65;100.00;95917.47;4998213;28;20550;-69
2021/01/08 01:42:56;;;;;;;34.60;14.90;;;;;;;0.69;100.00;95914.50;4997892;28;20227;-69
2021/01/08 01:45:22;;;;;;;31.67;14.23;;;;;;;0.60;100.00;95914.44;4997020;28;21310;-69
2021/01/08 01:47:48;;;;;;;36.33;15.47;;;;;;;0.59;100.00;95912.78;4997882;28;20212;-69
2021/01/08 01:50:15;;;;;;;37.40;14.80;;;;;;;0.64;100.00;95915.81;4997588;28;20205;-69
2021/01/08 01:52:41;;;;;;;34.97;14.27;;;;;;;0.62;100.00;95912.53;4997699;28;20209;-69
2021/01/08 01:55:08;;;;;;;30.37;13.67;;;;;;;0.54;100.00;95920.09;4996801;28;20226;-69
2021/01/08 01:57:34;;;;;;;35.63;14.47;;;;;;;0.53;100.00;95913.28;4998054;28;20210;-69
2021/01/08 02:00:00;;;;;;;33.13;14.23;;;;;;;0.46;100.00;95917.31;4997072;28;20236;-69
2021/01/08 02:02:36;;;;;;;39.03;13.77;;;;;;;0.58;100.00;95920.69;4998438;28;20234;-69
2021/01/08 02:05:05;;;;;;;35.47;14.60;;;;;;;0.47;100.00;95920.72;4996754;28;20228;-69
2021/01/08 02:07:35;;;;;;;33.90;14.50;;;;;;;0.50;100.00;95918.72;4997056;28;20624;-69
2021/01/08 02:10:04;;;;;;;32.57;13.60;;;;;;;0.48;100.00;95923.19;4998414;28;20208;-69
2021/01/08 02:12:31;;;;;;;33.10;14.33;;;;;;;0.32;100.00;95920.19;4997659;28;20194;-69
2021/01/08 02:14:59;;;;;;;34.20;14.20;;;;;;;0.46;100.00;95919.06;4997664;28;20224;-70
2021/01/08 02:17:28;;;;;;;34.67;14.43;;;;;;;0.57;100.00;95913.84;4997637;28;20210;-69
2021/01/08 02:20:01;;;;;;;38.47;15.13;;;;;;;0.50;100.00;95921.31;4998569;28;20603;-70
2021/01/08 02:22:31;;;;;;;37.77;15.00;;;;;;;0.63;100.00;95919.38;4996626;28;20846;-70
2021/01/08 02:25:11;;;;;;;34.20;13.80;;;;;;;0.62;100.00;95923.72;4997558;28;20243;-69
2021/01/08 02:27:39;;;;;;;36.70;15.00;;;;;;;0.72;100.00;95923.78;4997281;28;20206;-69
2021/01/08 02:30:07;;;;;;;33.90;13.47;;;;;;;0.51;100.00;95925.56;4997698;28;20213;-70
2021/01/08 02:32:34;;;;;;;32.83;14.57;;;;;;;0.54;100.00;95921.91;4997507;28;20257;-69
2021/01/08 02:35:01;;;;;;;34.83;14.27;;;;;;;0.54;100.00;95914.94;4996684;28;20987;-69
2021/01/08 02:37:28;;;;;;;32.03;14.37;;;;;;;0.61;100.00;95916.91;4997026;28;20239;-69
2021/01/08 02:39:55;;;;;;;32.97;13.90;;;;;;;0.60;100.00;95920.44;4997623;28;20208;-69
2021/01/08 02:42:23;;;;;;;38.00;15.37;;;;;;;0.58;100.00;95917.13;4997214;28;20224;-69
2021/01/08 02:44:49;;;;;;;38.40;15.23;;;;;;;0.44;100.00;95918.41;4997311;28;20222;-69
2021/01/08 02:47:19;;;;;;;26.43;9.50;;;;;;;0.46;100.00;95914.72;4996046;28;20220;-69
2021/01/08 02:49:45;;;;;;;40.53;14.83;;;;;;;0.43;100.00;95914.16;4997622;28;20557;-69
2021/01/08 02:52:11;;;;;;;26.27;11.03;;;;;;;0.46;100.00;95917.31;4997127;28;20217;-69
2021/01/08 02:54:37;;;;;;;30.50;13.00;;;;;;;0.37;100.00;95918.06;4997185;28;20260;-69
2021/01/08 02:57:06;;;;;;;37.83;15.10;;;;;;;0.43;100.00;95922.72;4996798;28;20209;-69
2021/01/08 02:59:34;;;;;;;34.70;14.00;;;;;;;0.50;100.00;95918.72;4998275;28;20254;-69
2021/01/08 03:02:00;;;;;;;37.67;15.20;;;;;;;0.42;100.00;95918.53;5000929;28;20221;-69
2021/01/08 03:04:26;;;;;;;39.57;15.27;;;;;;;0.49;100.00;95918.84;5001270;28;20944;-69
2021/01/08 03:06:53;;;;;;;36.37;14.23;;;;;;;0.47;100.00;95910.34;5000400;28;20259;-69
2021/01/08 03:09:20;;;;;;;35.40;14.57;;;;;;;0.47;100.00;95913.78;5000707;28;20213;-69
2021/01/08 03:11:53;;;;;;;33.57;14.10;;;;;;;0.57;100.00;95909.47;4999155;28;20194;-69
2021/01/08 03:14:20;;;;;;;33.33;14.37;;;;;;;0.52;100.00;95916.81;5000990;28;20220;-69
2021/01/08 03:16:47;;;;;;;40.73;16.63;;;;;;;0.43;100.00;95909.78;5000323;28;20209;-69
2021/01/08 03:19:13;;;;;;;37.70;15.60;;;;;;;0.43;100.00;95906.38;5000493;28;20205;-69
2021/01/08 03:21:39;;;;;;;40.53;15.50;;;;;;;0.54;100.00;95907.16;5001529;28;20238;-69
2021/01/08 03:24:06;;;;;;;38.77;15.10;;;;;;;0.58;100.00;95912.91;5000901;28;20222;-69
2021/01/08 03:26:32;;;;;;;40.47;15.80;;;;;;;0.51;100.00;95909.16;4999699;28;20211;-69
2021/01/08 03:28:58;;;;;;;38.63;14.57;;;;;;;0.57;100.00;95908.66;5000239;28;20194;-69
2021/01/08 03:31:24;;;;;;;36.73;15.23;;;;;;;0.35;100.00;95903.59;5001152;28;20202;-69
2021/01/08 03:33:51;;;;;;;38.20;16.20;;;;;;;0.35;100.00;95907.00;4999865;28;20768;-69
2021/01/08 03:36:17;;;;;;;42.80;15.67;;;;;;;0.39;100.00;95905.78;4999963;28;20203;-69
2021/01/08 03:38:43;;;;;;;36.37;15.00;;;;;;;0.53;100.00;95912.47;5000152;28;20684;-69
2021/01/08 03:41:09;;;;;;;37.13;15.10;;;;;;;0.45;100.00;95910.50;5000597;28;20226;-69
2021/01/08 03:43:35;;;;;;;50.67;20.17;;;;;;;0.32;100.00;95904.66;5000115;28;20211;-69
2021/01/08 03:46:01;;;;;;;38.43;14.97;;;;;;;0.38;100.00;95911.94;5000042;28;20357;-69
2021/01/08 03:48:27;;;;;;;39.83;14.67;;;;;;;0.28;100.00;95915.38;5000241;28;20215;-69
2021/01/08 03:50:54;;;;;;;42.40;17.13;;;;;;;0.33;100.00;95911.50;5000092;28;20207;-69
2021/01/08 03:53:20;;;;;;;38.93;13.97;;;;;;;0.39;100.00;95910.16;5000227;28;20676;-69
2021/01/08 03:55:46;;;;;;;36.07;14.37;;;;;;;0.41;100.00;95914.28;4999420;28;20207;-69
2021/01/08 03:58:11;;;;;;;35.83;14.97;;;;;;;0.33;100.00;95910.66;4999853;28;20202;-69
2021/01/08 04:00:37;;;;;;;27.90;11.83;;;;;;;0.36;100.00;95923.38;5000142;28;20282;-69
2021/01/08 04:03:03;;;;;;;40.73;14.83;;;;;;;0.36;100.00;95921.59;5000411;28;20230;-69
2021/01/08 04:05:29;;;;;;;38.37;15.33;;;;;;;0.39;100.00;95916.16;4999122;28;20225;-69
2021/01/08 04:07:56;;;;;;;38.80;15.10;;;;;;;0.36;100.00;95915.59;4999598;28;20573;-69
2021/01/08 04:10:22;;;;;;;33.33;14.07;;;;;;;0.40;100.00;95919.59;4999180;28;20222;-69
2021/01/08 04:12:48;;;;;;;37.60;15.63;;;;;;;0.38;100.00;95914.53;4999099;28;20198;-69
2021/01/08 04:15:14;;;;;;;34.47;14.97;;;;;;;0.34;100.00;95918.28;4998742;28;20256;-69
2021/01/08 04:17:40;;;;;;;36.50;15.10;;;;;;;0.40;100.00;95922.19;4999736;28;20709;-69
2021/01/08 04:20:07;;;;;;;35.53;14.57;;;;;;;0.35;100.00;95912.16;4999258;28;20250;-69
2021/01/08 04:22:33;;;;;;;36.30;14.53;;;;;;;0.21;100.00;95917.63;4999296;28;20226;-69
2021/01/08 04:25:00;;;;;;;36.43;15.40;;;;;;;0.29;100.00;95914.44;4999555;28;20231;-69
2021/01/08 04:27:25;;;;;;;34.27;15.37;;;;;;;0.24;100.00;95919.16;4999642;28;20206;-69
2021/01/08 04:29:51;;;;;;;35.17;15.30;;;;;;;0.29;100.00;95920.44;4999767;28;20203;-69
2021/01/08 04:32:17;;;;;;;38.87;15.43;;;;;;;0.27;100.00;95911.97;4999203;28;20194;-69
2021/01/08 04:34:43;;;;;;;40.50;15.50;;;;;;;0.33;100.00;95913.25;5000574;28;20225;-69
2021/01/08 04:37:09;;;;;;;38.17;15.20;;;;;;;0.35;100.00;95914.75;4998766;28;20200;-69
2021/01/08 04:39:35;;;;;;;31.97;13.10;;;;;;;0.41;100.00;95910.84;4999041;28;20203;-68
2021/01/08 04:42:02;;;;;;;35.97;14.87;;;;;;;0.33;100.00;95908.06;4999658;28;20278;-69
2021/01/08 04:44:30;;;;;;;35.63;15.23;;;;;;;0.43;100.00;95911.56;4999359;28;20222;-69
2021/01/08 04:46:57;;;;;;;30.40;13.23;;;;;;;0.32;100.00;95909.84;4997739;28;20202;-69
2021/01/08 04:49:23;;;;;;;35.13;14.47;;;;;;;0.21;100.00;95909.88;4999116;28;20204;-69
2021/01/08 04:51:51;;;;;;;34.17;14.53;;;;;;;0.21;100.00;95912.47;4998616;28;20203;-69
2021/01/08 04:54:17;;;;;;;35.63;14.53;;;;;;;0.20;100.00;95916.00;4998850;28;20292;-69
2021/01/08 04:56:46;;;;;;;33.57;14.60;;;;;;;0.11;100.00;95911.53;4997972;28;20207;-69
2021/01/08 04:59:13;;;;;;;34.30;15.07;;;;;;;0.07;100.00;95911.91;4999127;28;20214;-69
2021/01/08 05:01:39;;;;;;;36.80;14.60;;;;;;;0.09;100.00;95910.03;4998580;28;20228;-69
2021/01/08 05:04:05;;;;;;;34.93;14.30;;;;;;;0.06;100.00;95898.16;4998965;28;20218;-69
2021/01/08 05:06:32;;;;;;;35.53;15.57;;;;;;;0.11;100.00;95896.00;4998340;28;20264;-69
2021/01/08 05:08:58;;;;;;;34.17;13.93;;;;;;;0.14;100.00;95900.13;4998699;28;20301;-69
2021/01/08 05:11:25;;;;;;;31.40;14.07;;;;;;;0.21;100.00;95891.72;4998607;28;20586;-69
2021/01/08 05:13:53;;;;;;;43.63;16.60;;;;;;;0.22;100.00;95903.75;4998986;28;20346;-69
2021/01/08 05:16:22;;;;;;;46.63;17.50;;;;;;;0.19;100.00;95898.81;4998003;28;20285;-69
2021/01/08 05:18:48;;;;;;;37.87;15.60;;;;;;;0.20;100.00;95900.44;4998460;28;20212;-69
2021/01/08 05:21:15;;;;;;;38.83;15.90;;;;;;;0.22;100.00;95901.16;4998752;28;20206;-69
2021/01/08 05:23:41;;;;;;;42.03;16.20;;;;;;;0.10;100.00;95909.06;4997832;28;21941;-69
2021/01/08 05:26:07;;;;;;;36.10;14.93;;;;;;;0.16;100.00;95909.41;4997869;28;20574;-69
2021/01/08 05:28:33;;;;;;;30.20;13.23;;;;;;;0.23;100.00;95909.75;4998547;28;20209;-69
2021/01/08 05:30:59;;;;;;;34.47;14.27;;;;;;;0.06;100.00;95913.69;4997958;28;20289;-69
2021/01/08 05:33:26;;;;;;;35.20;14.13;;;;;;;0.09;100.00;95917.81;4998109;28;20237;-69
2021/01/08 05:35:52;;;;;;;37.83;16.17;;;;;;;0.06;100.00;95918.03;4998011;28;20212;-69
2021/01/08 05:38:21;;;;;;;43.10;16.03;;;;;;;0.15;100.00;95918.16;4997769;28;20202;-69
2021/01/08 05:40:47;;;;;;;39.23;16.50;;;;;;;0.14;100.00;95913.91;4998223;28;20207;-69
2021/01/08 05:43:13;;;;;;;40.83;15.97;;;;;;;0.23;100.00;95914.91;4998334;28;20233;-69
2021/01/08 05:45:39;;;;;;;35.37;15.80;;;;;;;0.23;100.00;95918.34;4997001;28;20222;-69
2021/01/08 05:48:08;;;;;;;36.10;15.57;;;;;;;0.16;100.00;95908.59;4998589;28;20201;-69
2021/01/08 05:50:35;;;;;;;40.77;16.00;;;;;;;0.17;100.00;95920.63;4997844;28;20203;-69
2021/01/08 05:53:04;;;;;;;38.93;15.03;;;;;;;0.16;100.00;95924.94;4997701;28;20201;-69
2021/01/08 05:55:35;;;;;;;35.93;15.67;;;;;;;0.19;100.00;95923.88;4997364;28;20245;-69
2021/01/08 05:58:01;;;;;;;48.27;17.33;;;;;;;0.18;100.00;95922.25;4998038;28;20226;-69
2021/01/08 06:00:28;;;;;;;41.10;16.20;;;;;;;0.21;100.00;95916.81;4998149;28;20212;-69
2021/01/08 06:02:55;;;;;;;37.70;14.70;;;;;;;0.23;100.00;95917.50;4997805;28;20275;-69
2021/01/08 06:05:21;;;;;;;35.30;14.97;;;;;;;0.39;100.00;95910.97;4997059;28;20222;-69
2021/01/08 06:07:50;;;;;;;35.17;14.77;;;;;;;0.42;100.00;95915.94;4997621;28;20245;-69
2021/01/08 06:10:21;;;;;;;39.40;15.20;;;;;;;0.40;100.00;95920.41;4997614;28;20208;-69
2021/01/08 06:12:50;;;;;;;40.43;15.87;;;;;;;0.31;100.00;95912.56;4997211;28;20198;-69
2021/01/08 06:15:17;;;;;;;44.03;15.97;;;;;;;0.30;100.00;95914.31;4997371;28;20230;-70
2021/01/08 06:17:47;;;;;;;57.93;21.20;;;;;;;0.41;100.00;95918.63;4997434;28;21107;-69
2021/01/08 06:20:14;;;;;;;47.80;18.93;;;;;;;0.50;100.00;95918.72;4997562;28;20249;-69
2021/01/08 06:22:42;;;;;;;38.80;15.47;;;;;;;0.18;100.00;95922.25;4997903;28;20227;-70
2021/01/08 06:25:10;;;;;;;35.90;14.57;;;;;;;0.42;100.00;95918.53;4996407;28;20218;-69
2021/01/08 06:27:36;;;;;;;44.60;16.87;;;;;;;0.20;100.00;95925.53;4997193;28;20211;-69
2021/01/08 06:30:05;;;;;;;37.27;15.23;;;;;;;0.22;100.00;95924.47;4997532;28;20206;-70
2021/01/08 06:32:32;;;;;;;39.70;15.20;;;;;;;0.37;100.00;95927.59;4998191;28;20669;-69
2021/01/08 06:35:05;;;;;;;43.10;15.67;;;;;;;0.32;100.00;95929.72;4995952;28;20241;-69
2021/01/08 06:37:39;;;;;;;39.10;15.43;;;;;;;0.17;100.00;95934.38;4997737;28;20215;-69
2021/01/08 06:40:09;;;;;;;39.27;14.70;;;;;;;0.07;100.00;95928.28;4996999;28;21059;-69
2021/01/08 06:42:44;;;;;;;41.27;15.63;;;;;;;0.04;100.00;95920.75;4996901;28;21245;-69
2021/01/08 06:45:14;;;;;;;40.60;15.13;;;;;;;-0.14;100.00;95928.31;4996808;28;20255;-69
2021/01/08 06:47:45;;;;;;;43.43;16.80;;;;;;;-0.21;100.00;95930.56;4997353;28;20245;-69
2021/01/08 06:50:19;;;;;;;45.40;16.50;;;;;;;-0.20;100.00;95932.22;4997268;28;20576;-70
2021/01/08 06:52:47;;;;;;;48.37;18.07;;;;;;;-0.22;100.00;95928.13;4997393;28;20194;-70
2021/01/08 06:55:19;;;;;;;43.17;16.53;;;;;;;-0.27;100.00;95927.66;4996665;28;20227;-70
2021/01/08 06:57:50;;;;;;;44.60;16.33;;;;;;;-0.23;100.00;95939.41;4997417;28;20210;-70
2021/01/08 07:00:20;;;;;;;43.93;15.77;;;;;;;-0.26;100.00;95937.06;4996777;28;20206;-70
2021/01/08 07:02:51;;;;;;;47.23;16.10;;;;;;;-0.25;100.00;95936.94;4997192;28;20315;-70
2021/01/08 07:05:19;;;;;;;43.27;16.00;;;;;;;-0.16;100.00;95932.81;4996711;28;20218;-70
2021/01/08 07:07:46;;;;;;;45.03;16.33;;;;;;;-0.17;100.00;95933.75;4997048;28;20213;-70
2021/01/08 07:10:15;;;;;;;43.03;15.83;;;;;;;-0.22;100.00;95943.66;4996863;28;20217;-69
2021/01/08 07:12:42;;;;;;;41.50;16.17;;;;;;;-0.18;100.00;95950.22;4997923;28;20204;-70
2021/01/08 07:15:10;;;;;;;43.57;16.00;;;;;;;-0.21;100.00;95945.28;4996465;28;20263;-70
2021/01/08 07:17:37;;;;;;;44.77;15.50;;;;;;;-0.12;100.00;95949.75;4996889;28;20266;-70
2021/01/08 07:20:05;;;;;;;46.23;16.03;;;;;;;-0.18;100.00;95952.81;4996565;28;20230;-70
2021/01/08 07:22:33;;;;;;;44.67;16.57;;;;;;;-0.22;100.00;95959.19;4997754;28;20232;-70
2021/01/08 07:25:05;;;;;;;46.47;16.63;;;;;;;-0.18;100.00;95956.22;4996207;28;20225;-70
2021/01/08 07:27:32;;;;;;;43.13;17.33;;;;;;;-0.20;100.00;95965.06;4997268;28;20206;-70
2021/01/08 07:30:00;;;;;;;46.53;17.17;;;;;;;-0.24;100.00;95968.81;4997186;28;20202;-70
2021/01/08 07:32:37;;;;;;;45.40;16.27;;;;;;;-0.12;100.00;95970.47;4996800;28;20200;-70
2021/01/08 07:35:21;;;;;;;47.57;17.30;;;;;;;-0.10;100.00;95971.16;4996298;28;20226;-70
2021/01/08 07:38:02;;;;;;;43.00;15.40;;;;;;;-0.17;100.00;95973.41;4996525;28;20207;-70
2021/01/08 07:40:30;;;;;;;44.23;16.50;;;;;;;-0.09;100.00;95980.56;4996365;28;20202;-70
2021/01/08 07:43:00;;;;;;;41.83;15.40;;;;;;;-0.11;100.00;95977.31;4996855;28;20227;-70
2021/01/08 07:45:47;;;;;;;43.90;18.00;;;;;;;-0.19;100.00;95977.88;4996624;28;20222;-70
2021/01/08 07:48:17;;;;;;;42.70;16.23;;;;;;;0.00;100.00;95983.28;4999981;28;20249;-70
2021/01/08 07:50:54;;;;;;;43.00;16.77;;;;;;;-0.03;100.00;95980.91;4999957;28;20198;-69
2021/01/08 07:53:46;;;;;;;43.13;17.17;;;;;;;-0.03;100.00;95985.28;5000682;28;20301;-69
2021/01/08 07:56:13;;;;;;;41.17;16.53;;;;;;;-0.13;100.00;95990.34;4998946;28;20206;-69
2021/01/08 07:58:39;;;;;;;46.30;16.80;;;;;;;-0.04;100.00;95988.81;5000392;28;21105;-69
2021/01/08 08:01:08;;;;;;;45.17;16.83;;;;;;;-0.02;100.00;95986.94;4999950;28;20198;-69
2021/01/08 08:03:34;;;;;;;42.43;15.37;;;;;;;0.07;100.00;95998.19;5000084;28;20224;-69
2021/01/08 08:06:01;;;;;;;50.07;17.33;;;;;;;0.14;100.00;95999.38;4999021;28;20200;-69
2021/01/08 08:08:27;;;;;;;47.73;17.80;;;;;;;0.23;100.00;96003.00;5000373;28;20297;-69
2021/01/08 08:10:53;;;;;;;48.40;17.83;;;;;;;0.35;100.00;95996.88;4999491;28;20569;-69
2021/01/08 08:13:27;;;;;;;48.80;17.73;;;;;;;0.36;100.00;95999.34;5000139;28;20199;-69
2021/01/08 08:15:52;;;;;;;44.03;16.60;;;;;;;0.41;100.00;96001.53;4998774;28;20199;-69
2021/01/08 08:18:19;;;;;;;45.43;17.43;;;;;;;0.57;100.00;96001.97;4999782;28;20206;-69
2021/01/08 08:20:45;;;;;;;43.57;16.20;;;;;;;0.63;100.00;96005.72;5000060;28;20204;-69
2021/01/08 08:23:15;;;;;;;34.73;12.03;;;;;;;0.53;100.00;95998.81;4999753;28;20303;-69
2021/01/08 08:25:42;;;;;;;43.97;16.27;;;;;;;0.55;100.00;96004.72;4999114;28;21293;-69
2021/01/08 08:28:08;;;;;;;48.70;19.00;;;;;;;0.60;100.00;96005.97;4998897;28;20229;-69
2021/01/08 08:30:34;;;;;;;45.03;15.53;;;;;;;0.69;100.00;96012.22;4999684;28;20573;-69
2021/01/08 08:33:03;;;;;;;43.27;15.93;;;;;;;0.73;100.00;96005.81;4998849;28;20951;-69
2021/01/08 08:35:32;;;;;;;41.70;16.50;;;;;;;0.74;100.00;96015.25;4998999;28;20705;-69
2021/01/08 08:37:58;;;;;;;38.43;13.80;;;;;;;0.65;100.00;96009.03;4999264;28;20237;-69
2021/01/08 08:40:26;;;;;;;41.03;15.37;;;;;;;0.74;100.00;96010.06;4999598;28;20667;-69
2021/01/08 08:42:54;;;;;;;43.20;16.63;;;;;;;0.70;100.00;96019.00;4998934;28;20222;-69
2021/01/08 08:45:23;;;;;;;46.33;16.63;;;;;;;0.77;100.00;96023.59;4998646;28;20223;-69
2021/01/08 08:47:51;;;;;;;38.63;14.03;;;;;;;0.61;100.00;96010.22;4999126;28;20208;-69
2021/01/08 08:50:18;;;;;;;44.93;15.80;;;;;;;0.69;100.00;96017.38;4999515;28;20212;-69
2021/01/08 08:52:45;;;;;;;36.20;11.80;;;;;;;0.53;100.00;96016.94;4998835;28;20197;-69
2021/01/08 08:55:25;;;;;;;39.40;14.13;;;;;;;0.61;100.00;96019.75;4997491;28;20216;-69
2021/01/08 08:57:52;;;;;;;40.53;16.13;;;;;;;0.77;100.00;96015.00;4998696;28;20313;-69
2021/01/08 09:00:21;;;;;;;40.43;15.63;;;;;;;0.69;100.00;96017.38;4998602;28;20198;-69
2021/01/08 09:02:47;;;;;;;43.40;15.07;;;;;;;0.73;100.00;96013.59;4998570;28;20220;-69
2021/01/08 09:05:13;;;;;;;37.73;15.53;;;;;;;0.58;100.00;96017.41;4997992;28;20318;-69
2021/01/08 09:07:44;;;;;;;42.63;16.27;;;;;;;0.66;100.00;96017.63;4999087;28;20311;-69
2021/01/08 09:10:14;;;;;;;36.50;12.70;;;;;;;0.62;100.00;96021.41;4998790;28;20679;-69
2021/01/08 09:12:44;;;;;;;41.77;15.10;;;;;;;0.63;100.00;96016.09;4998899;28;20199;-69
2021/01/08 09:15:18;;;;;;;42.37;16.30;;;;;;;0.69;100.00;96022.56;4997786;28;20230;-69
2021/01/08 09:17:48;;;;;;;42.77;16.83;;;;;;;0.82;100.00;96018.03;4998947;28;20212;-69
2021/01/08 09:20:17;;;;;;;43.53;17.17;;;;;;;0.87;100.00;96026.28;4998548;28;20205;-69
2021/01/08 09:22:44;;;;;;;50.93;17.57;;;;;;;1.00;100.00;96021.75;4999150;28;20412;-69
2021/01/08 09:25:12;;;;;;;43.27;16.43;;;;;;;1.08;100.00;96020.16;4997704;28;20293;-69
2021/01/08 09:27:41;;;;;;;40.00;15.63;;;;;;;1.10;100.00;96025.22;4999029;28;20205;-69
2021/01/08 09:30:09;;;;;;;36.43;13.77;;;;;;;1.20;100.00;96019.16;4998940;28;20619;-69
2021/01/08 09:32:36;;;;;;;36.83;14.90;;;;;;;1.10;100.00;96020.03;4998393;28;20202;-69
2021/01/08 09:35:04;;;;;;;27.87;12.03;;;;;;;1.13;100.00;96022.38;4996905;28;20234;-69
2021/01/08 09:37:38;;;;;;;35.07;15.00;;;;;;;1.12;100.00;96018.13;4999171;28;20208;-69
2021/01/08 09:40:13;;;;;;;35.60;13.27;;;;;;;1.10;100.00;96025.22;4998316;28;20266;-69
2021/01/08 09:42:40;;;;;;;40.47;15.70;;;;;;;1.17;100.00;96028.97;4998017;28;20221;-69
2021/01/08 09:45:22;;;;;;;37.00;15.83;;;;;;;1.45;100.00;96024.78;4997155;28;20827;-69
2021/01/08 09:47:49;;;;;;;36.70;14.80;;;;;;;1.36;100.00;96024.72;4996810;28;20208;-69
2021/01/08 09:50:22;;;;;;;39.47;13.47;;;;;;;1.35;100.00;96026.50;4998046;28;20210;-69
2021/01/08 09:52:48;;;;;;;37.50;12.93;;;;;;;1.34;100.00;96022.25;4997876;28;21031;-69
2021/01/08 09:55:23;;;;;;;34.33;14.50;;;;;;;1.35;100.00;96018.72;4997230;28;20309;-69
2021/01/08 09:57:55;;;;;;;32.47;13.43;;;;;;;1.38;100.00;96026.22;4997564;28;20328;-70
2021/01/08 10:00:27;;;;;;;34.53;12.47;;;;;;;1.24;100.00;96028.34;4997737;28;20671;-70
2021/01/08 10:02:53;;;;;;;32.17;11.83;;;;;;;1.36;100.00;96035.94;4998227;28;20228;-70
2021/01/08 10:05:29;;;;;;;34.90;13.47;;;;;;;1.63;100.00;96033.66;4996792;28;20247;-69
2021/01/08 10:07:57;;;;;;;25.27;10.87;;;;;;;1.57;100.00;96033.34;4997672;28;20282;-70
2021/01/08 10:10:51;;;;;;;27.23;11.47;;;;;;;1.65;100.00;96030.91;4997334;28;20217;-70
2021/01/08 10:13:19;;;;;;;27.20;11.07;;;;;;;1.53;100.00;96032.75;4952513;28;20242;-70
2021/01/08 10:15:47;;;;;;;28.17;12.80;;;;;;;1.60;100.00;96020.09;4996586;28;20235;-70
2021/01/08 10:18:15;;;;;;;27.83;10.90;;;;;;;1.56;100.00;96026.50;4997613;28;20751;-69
2021/01/08 10:20:46;;;;;;;29.07;11.70;;;;;;;1.31;100.00;96029.47;4996994;28;20202;-70
2021/01/08 10:23:14;;;;;;;36.23;13.27;;;;;;;1.29;100.00;96027.00;4997692;28;20232;-70
2021/01/08 10:25:40;;;;;;;30.60;11.93;;;;;;;0.99;100.00;96028.69;4996479;28;20234;-69
2021/01/08 10:28:12;;;;;;;28.87;12.33;;;;;;;0.90;100.00;96026.84;4997764;28;20214;-70
2021/01/08 10:30:39;;;;;;;28.83;12.83;;;;;;;0.96;100.00;96028.13;4996937;28;20200;-70
2021/01/08 10:33:05;;;;;;;31.90;13.00;;;;;;;0.88;100.00;96027.91;4998018;28;20268;-70
2021/01/08 10:35:31;;;;;;;27.70;10.90;;;;;;;0.92;100.00;96018.94;4996757;28;20218;-69
2021/01/08 10:37:57;;;;;;;38.47;13.90;;;;;;;0.93;100.00;96020.56;4997107;28;20212;-70
2021/01/08 10:40:23;;;;;;;34.70;13.97;;;;;;;1.10;100.00;96020.03;4998045;28;20252;-70
2021/01/08 10:42:51;;;;;;;33.87;13.53;;;;;;;1.06;100.00;96023.81;4996783;28;20765;-70
2021/01/08 10:45:18;;;;;;;36.27;14.10;;;;;;;1.08;100.00;96017.56;4996473;28;20431;-70
2021/01/08 10:47:44;;;;;;;32.20;11.90;;;;;;;1.21;100.00;96020.81;4997167;28;20206;-70
2021/01/08 10:50:11;;;;;;;29.03;11.83;;;;;;;1.35;100.00;96018.72;4998230;28;20202;-70
2021/01/08 10:52:37;;;;;;;31.80;13.00;;;;;;;1.34;100.00;96017.06;4996652;28;20199;-70
2021/01/08 10:55:04;;;;;;;29.90;11.67;;;;;;;1.17;100.00;96016.78;4996199;28;20222;-70
2021/01/08 10:57:30;;;;;;;27.27;11.40;;;;;;;1.18;100.00;96010.66;4996991;28;20207;-70
2021/01/08 10:59:55;;;;;;;25.60;11.03;;;;;;;1.31;100.00;96014.72;4997408;28;20670;-70
2021/01/08 11:02:22;;;;;;;20.10;8.97;;;;;;;1.33;100.00;96015.41;4996475;28;20758;-70
2021/01/08 11:04:48;;;;;;;26.27;11.53;;;;;;;1.25;100.00;96017.00;4997008;28;20710;-70
2021/01/08 11:07:14;;;;;;;27.30;11.80;;;;;;;1.43;100.00;96011.09;4996453;28;20207;-70
2021/01/08 11:09:40;;;;;;;22.83;10.53;;;;;;;1.52;100.00;96006.94;4997013;28;20214;-70
2021/01/08 11:12:07;;;;;;;25.83;11.17;;;;;;;1.53;100.00;96013.78;4997154;28;20204;-70
2021/01/08 11:14:33;;;;;;;25.27;10.20;;;;;;;1.49;100.00;96005.41;4997107;28;20222;-69
2021/01/08 11:16:59;;;;;;;25.47;10.47;;;;;;;1.48;100.00;96003.75;4995725;28;20230;-70
2021/01/08 11:19:26;;;;;;;24.63;11.00;;;;;;;1.39;100.00;95999.34;4997309;28;20287;-70